sensor_id;sensor_type;location;lat;lon;timestamp;pressure;altitude;pressure_sealevel;temperature;humidity
18795;BME280;29610;49.022;12.114;2023-09-19T00:02:40;97314.22;;;17.88;100.00
18795;BME280;29610;49.022;12.114;2023-09-19T00:05:35;97327.63;;;17.93;100.00
18795;BME280;29610;49.022;12.114;2023-09-19T00:08:26;97322.53;;;17.95;100.00
18795;BME280;29610;49.022;12.114;2023-09-19T00:11:15;97316.97;;;17.88;100.00
18795;BME280;29610;49.022;12.114;2023-09-19T00:14:04;97313.75;;;17.83;100.00
18795;BME280;29610;49.022;12.114;2023-09-19T00:16:56;97309.03;;;17.80;100.00
18795;BME280;29610;49.022;12.114;2023-09-19T00:19:45;97318.50;;;17.82;100.00
18795;BME280;29610;49.022;12.114;2023-09-19T00:22:41;97313.38;;;17.84;100.00
18795;BME280;29610;49.022;12.114;2023-09-19T00:25:31;97323.19;;;17.82;100.00
18795;BME280;29610;49.022;12.114;2023-09-19T00:28:23;97322.81;;;17.83;100.00
18795;BME280;29610;49.022;12.114;2023-09-19T00:31:12;97318.22;;;17.94;100.00
18795;BME280;29610;49.022;12.114;2023-09-19T00:34:01;97320.97;;;17.94;100.00
18795;BME280;29610;49.022;12.114;2023-09-19T00:36:54;97316.56;;;17.86;100.00
18795;BME280;29610;49.022;12.114;2023-09-19T00:39:44;97321.81;;;17.98;100.00
18795;BME280;29610;49.022;12.114;2023-09-19T00:42:34;97314.69;;;17.97;100.00
18795;BME280;29610;49.022;12.114;2023-09-19T00:45:25;97319.81;;;17.99;100.00
18795;BME280;29610;49.022;12.114;2023-09-19T00:48:16;97328.50;;;18.01;100.00
18795;BME280;29610;49.022;12.114;2023-09-19T00:51:07;97320.25;;;18.01;100.00
18795;BME280;29610;49.022;12.114;2023-09-19T00:53:56;97316.69;;;18.00;100.00
18795;BME280;29610;49.022;12.114;2023-09-19T00:56:48;97321.41;;;18.00;100.00
18795;BME280;29610;49.022;12.114;2023-09-19T00:59:38;97322.13;;;17.93;100.00
18795;BME280;29610;49.022;12.114;2023-09-19T01:02:27;97325.97;;;17.85;100.00
18795;BME280;29610;49.022;12.114;2023-09-19T01:05:18;97327.59;;;17.90;100.00
18795;BME280;29610;49.022;12.114;2023-09-19T01:08:11;97321.28;;;17.89;100.00
18795;BME280;29610;49.022;12.114;2023-09-19T01:11:09;97317.75;;;17.89;100.00
18795;BME280;29610;49.022;12.114;2023-09-19T01:14:14;97322.81;;;17.83;100.00
18795;BME280;29610;49.022;12.114;2023-09-19T01:17:21;97323.66;;;17.91;100.00
18795;BME280;29610;49.022;12.114;2023-09-19T01:20:35;97331.91;;;17.91;100.00
18795;BME280;29610;49.022;12.114;2023-09-19T01:23:41;97331.91;;;17.91;100.00
18795;BME280;29610;49.022;12.114;2023-09-19T01:27:00;97333.91;;;17.90;100.00
18795;BME280;29610;49.022;12.114;2023-09-19T01:30:07;97341.72;;;17.88;100.00
18795;BME280;29610;49.022;12.114;2023-09-19T01:32:58;97331.84;;;17.84;100.00
18795;BME280;29610;49.022;12.114;2023-09-19T01:35:47;97337.84;;;17.93;100.00
18795;BME280;29610;49.022;12.114;2023-09-19T01:38:38;97334.66;;;17.91;100.00
18795;BME280;29610;49.022;12.114;2023-09-19T01:41:47;97337.00;;;17.89;100.00
18795;BME280;29610;49.022;12.114;2023-09-19T01:44:51;97340.22;;;17.94;100.00
18795;BME280;29610;49.022;12.114;2023-09-19T01:47:50;97343.38;;;17.96;100.00
18795;BME280;29610;49.022;12.114;2023-09-19T01:50:49;97344.47;;;17.88;100.00
18795;BME280;29610;49.022;12.114;2023-09-19T01:53:53;97348.53;;;17.65;100.00
18795;BME280;29610;49.022;12.114;2023-09-19T01:56:50;97351.81;;;17.77;100.00
18795;BME280;29610;49.022;12.114;2023-09-19T01:59:48;97352.97;;;17.76;100.00
18795;BME280;29610;49.022;12.114;2023-09-19T02:02:44;97354.22;;;17.82;100.00
18795;BME280;29610;49.022;12.114;2023-09-19T02:05:35;97351.00;;;17.77;100.00
18795;BME280;29610;49.022;12.114;2023-09-19T02:08:24;97355.78;;;17.83;100.00
18795;BME280;29610;49.022;12.114;2023-09-19T02:11:14;97357.41;;;17.88;100.00
18795;BME280;29610;49.022;12.114;2023-09-19T02:14:03;97359.50;;;17.98;100.00
18795;BME280;29610;49.022;12.114;2023-09-19T02:16:56;97359.72;;;17.82;100.00
18795;BME280;29610;49.022;12.114;2023-09-19T02:19:45;97357.75;;;17.83;100.00
18795;BME280;29610;49.022;12.114;2023-09-19T02:22:36;97355.13;;;17.93;100.00
18795;BME280;29610;49.022;12.114;2023-09-19T02:25:25;97352.19;;;17.79;100.00
18795;BME280;29610;49.022;12.114;2023-09-19T02:28:15;97361.63;;;17.78;100.00
18795;BME280;29610;49.022;12.114;2023-09-19T02:31:04;97365.41;;;17.63;100.00
18795;BME280;29610;49.022;12.114;2023-09-19T02:33:53;97357.31;;;17.77;100.00
18795;BME280;29610;49.022;12.114;2023-09-19T02:36:42;97361.19;;;17.73;100.00
18795;BME280;29610;49.022;12.114;2023-09-19T02:39:34;97362.00;;;17.77;100.00
18795;BME280;29610;49.022;12.114;2023-09-19T02:42:23;97362.66;;;17.67;100.00
18795;BME280;29610;49.022;12.114;2023-09-19T02:45:12;97358.63;;;17.57;100.00
18795;BME280;29610;49.022;12.114;2023-09-19T02:48:02;97366.69;;;17.73;100.00
18795;BME280;29610;49.022;12.114;2023-09-19T02:50:52;97362.72;;;17.70;100.00
18795;BME280;29610;49.022;12.114;2023-09-19T02:53:41;97365.16;;;17.79;100.00
18795;BME280;29610;49.022;12.114;2023-09-19T02:56:33;97362.38;;;17.75;100.00
18795;BME280;29610;49.022;12.114;2023-09-19T02:59:24;97368.38;;;17.84;100.00
18795;BME280;29610;49.022;12.114;2023-09-19T03:02:16;97379.88;;;17.93;100.00
18795;BME280;29610;49.022;12.114;2023-09-19T03:05:07;97385.03;;;17.98;100.00
18795;BME280;29610;49.022;12.114;2023-09-19T03:07:59;97379.34;;;17.84;100.00
18795;BME280;29610;49.022;12.114;2023-09-19T03:10:50;97378.97;;;17.86;100.00
18795;BME280;29610;49.022;12.114;2023-09-19T03:13:40;97381.34;;;17.87;100.00
18795;BME280;29610;49.022;12.114;2023-09-19T03:16:31;97389.97;;;17.86;100.00
18795;BME280;29610;49.022;12.114;2023-09-19T03:19:21;97387.97;;;17.83;100.00
18795;BME280;29610;49.022;12.114;2023-09-19T03:22:11;97400.63;;;17.91;100.00
18795;BME280;29610;49.022;12.114;2023-09-19T03:25:00;97395.63;;;17.96;100.00
18795;BME280;29610;49.022;12.114;2023-09-19T03:27:51;97399.94;;;17.97;100.00
18795;BME280;29610;49.022;12.114;2023-09-19T03:30:44;97408.28;;;18.04;100.00
18795;BME280;29610;49.022;12.114;2023-09-19T03:33:34;97404.72;;;18.04;100.00
18795;BME280;29610;49.022;12.114;2023-09-19T03:36:23;97396.13;;;18.09;100.00
18795;BME280;29610;49.022;12.114;2023-09-19T03:39:12;97401.97;;;18.04;100.00
18795;BME280;29610;49.022;12.114;2023-09-19T03:42:03;97393.69;;;18.00;100.00
18795;BME280;29610;49.022;12.114;2023-09-19T03:44:55;97404.00;;;18.10;100.00
18795;BME280;29610;49.022;12.114;2023-09-19T03:47:47;97397.72;;;18.10;100.00
18795;BME280;29610;49.022;12.114;2023-09-19T03:50:39;97396.44;;;18.00;100.00
18795;BME280;29610;49.022;12.114;2023-09-19T03:53:28;97403.91;;;18.03;100.00
18795;BME280;29610;49.022;12.114;2023-09-19T03:56:16;97406.22;;;17.98;100.00
18795;BME280;29610;49.022;12.114;2023-09-19T03:59:06;97409.41;;;18.00;100.00
18795;BME280;29610;49.022;12.114;2023-09-19T04:01:56;97407.09;;;18.05;100.00
18795;BME280;29610;49.022;12.114;2023-09-19T04:04:47;97413.56;;;17.87;100.00
18795;BME280;29610;49.022;12.114;2023-09-19T04:07:36;97421.09;;;17.93;100.00
18795;BME280;29610;49.022;12.114;2023-09-19T04:10:25;97411.34;;;17.99;100.00
18795;BME280;29610;49.022;12.114;2023-09-19T04:13:14;97412.53;;;18.02;100.00
18795;BME280;29610;49.022;12.114;2023-09-19T04:16:03;97411.41;;;18.03;100.00
18795;BME280;29610;49.022;12.114;2023-09-19T04:18:54;97408.59;;;17.99;100.00
18795;BME280;29610;49.022;12.114;2023-09-19T04:21:44;97417.72;;;18.07;100.00
18795;BME280;29610;49.022;12.114;2023-09-19T04:24:33;97418.94;;;18.09;100.00
18795;BME280;29610;49.022;12.114;2023-09-19T04:27:22;97414.22;;;18.10;100.00
18795;BME280;29610;49.022;12.114;2023-09-19T04:30:11;97420.88;;;18.09;100.00
18795;BME280;29610;49.022;12.114;2023-09-19T04:33:00;97414.16;;;18.03;100.00
18795;BME280;29610;49.022;12.114;2023-09-19T04:35:50;97423.69;;;18.12;100.00
18795;BME280;29610;49.022;12.114;2023-09-19T04:38:40;97426.09;;;18.17;100.00
18795;BME280;29610;49.022;12.114;2023-09-19T04:41:32;97427.19;;;18.13;100.00
18795;BME280;29610;49.022;12.114;2023-09-19T04:44:21;97437.13;;;18.21;100.00
18795;BME280;29610;49.022;12.114;2023-09-19T04:47:10;97439.09;;;18.20;100.00
18795;BME280;29610;49.022;12.114;2023-09-19T04:49:59;97442.88;;;18.09;100.00
18795;BME280;29610;49.022;12.114;2023-09-19T04:52:50;97452.31;;;18.08;100.00
18795;BME280;29610;49.022;12.114;2023-09-19T04:55:40;97449.41;;;17.97;100.00
18795;BME280;29610;49.022;12.114;2023-09-19T04:58:29;97448.38;;;18.09;100.00
18795;BME280;29610;49.022;12.114;2023-09-19T05:01:18;97447.63;;;18.12;100.00
18795;BME280;29610;49.022;12.114;2023-09-19T05:04:09;97454.69;;;18.13;100.00
18795;BME280;29610;49.022;12.114;2023-09-19T05:06:58;97451.47;;;18.04;100.00
18795;BME280;29610;49.022;12.114;2023-09-19T05:09:48;97454.63;;;18.06;100.00
18795;BME280;29610;49.022;12.114;2023-09-19T05:12:38;97458.13;;;18.03;100.00
18795;BME280;29610;49.022;12.114;2023-09-19T05:15:27;97458.22;;;18.10;100.00
18795;BME280;29610;49.022;12.114;2023-09-19T05:18:16;97459.44;;;18.12;100.00
18795;BME280;29610;49.022;12.114;2023-09-19T05:21:05;97455.34;;;17.99;100.00
18795;BME280;29610;49.022;12.114;2023-09-19T05:23:53;97463.69;;;18.10;100.00
18795;BME280;29610;49.022;12.114;2023-09-19T05:26:42;97460.19;;;18.09;100.00
18795;BME280;29610;49.022;12.114;2023-09-19T05:29:32;97467.69;;;18.16;100.00
18795;BME280;29610;49.022;12.114;2023-09-19T05:32:20;97465.84;;;18.23;100.00
18795;BME280;29610;49.022;12.114;2023-09-19T05:35:10;97461.97;;;18.28;100.00
18795;BME280;29610;49.022;12.114;2023-09-19T05:38:00;97468.59;;;18.23;100.00
18795;BME280;29610;49.022;12.114;2023-09-19T05:40:49;97469.00;;;18.25;100.00
18795;BME280;29610;49.022;12.114;2023-09-19T05:43:37;97468.25;;;18.28;100.00
18795;BME280;29610;49.022;12.114;2023-09-19T05:46:28;97474.03;;;18.20;100.00
18795;BME280;29610;49.022;12.114;2023-09-19T05:49:17;97468.91;;;18.18;100.00
18795;BME280;29610;49.022;12.114;2023-09-19T05:52:09;97468.53;;;18.20;100.00
18795;BME280;29610;49.022;12.114;2023-09-19T05:54:57;97472.91;;;17.91;100.00
18795;BME280;29610;49.022;12.114;2023-09-19T05:57:50;97484.34;;;17.93;100.00
18795;BME280;29610;49.022;12.114;2023-09-19T06:00:39;97481.53;;;17.90;100.00
18795;BME280;29610;49.022;12.114;2023-09-19T06:03:30;97485.50;;;17.92;100.00
18795;BME280;29610;49.022;12.114;2023-09-19T06:06:19;97487.88;;;17.94;100.00
18795;BME280;29610;49.022;12.114;2023-09-19T06:09:08;97491.78;;;17.93;100.00
18795;BME280;29610;49.022;12.114;2023-09-19T06:11:57;97497.84;;;18.05;100.00
18795;BME280;29610;49.022;12.114;2023-09-19T06:14:47;97499.06;;;18.11;100.00
18795;BME280;29610;49.022;12.114;2023-09-19T06:17:36;97493.69;;;18.18;100.00
18795;BME280;29610;49.022;12.114;2023-09-19T06:20:27;97501.97;;;18.22;100.00
18795;BME280;29610;49.022;12.114;2023-09-19T06:23:15;97505.03;;;18.46;100.00
18795;BME280;29610;49.022;12.114;2023-09-19T06:26:04;97496.13;;;18.60;100.00
18795;BME280;29610;49.022;12.114;2023-09-19T06:28:54;97502.19;;;18.76;100.00
18795;BME280;29610;49.022;12.114;2023-09-19T06:31:43;97513.81;;;18.99;100.00
18795;BME280;29610;49.022;12.114;2023-09-19T06:34:32;97507.63;;;19.13;100.00
18795;BME280;29610;49.022;12.114;2023-09-19T06:37:22;97514.09;;;19.31;100.00
18795;BME280;29610;49.022;12.114;2023-09-19T06:40:13;97514.56;;;19.40;100.00
18795;BME280;29610;49.022;12.114;2023-09-19T06:43:03;97528.88;;;19.56;100.00
18795;BME280;29610;49.022;12.114;2023-09-19T06:45:53;97539.63;;;19.75;100.00
18795;BME280;29610;49.022;12.114;2023-09-19T06:48:43;97537.72;;;19.86;100.00
18795;BME280;29610;49.022;12.114;2023-09-19T06:51:33;97541.13;;;19.65;100.00
18795;BME280;29610;49.022;12.114;2023-09-19T06:54:24;97536.94;;;19.89;100.00
18795;BME280;29610;49.022;12.114;2023-09-19T06:57:14;97550.03;;;20.06;100.00
18795;BME280;29610;49.022;12.114;2023-09-19T07:00:03;97550.88;;;20.13;100.00
18795;BME280;29610;49.022;12.114;2023-09-19T07:02:57;97552.91;;;20.23;100.00
18795;BME280;29610;49.022;12.114;2023-09-19T07:05:48;97548.97;;;20.28;100.00
18795;BME280;29610;49.022;12.114;2023-09-19T07:08:37;97537.63;;;20.40;100.00
18795;BME280;29610;49.022;12.114;2023-09-19T07:11:27;97552.91;;;20.20;100.00
18795;BME280;29610;49.022;12.114;2023-09-19T07:14:18;97556.41;;;20.13;100.00
18795;BME280;29610;49.022;12.114;2023-09-19T07:17:06;97558.06;;;20.28;100.00
18795;BME280;29610;49.022;12.114;2023-09-19T07:19:56;97555.31;;;20.28;100.00
18795;BME280;29610;49.022;12.114;2023-09-19T07:22:46;97558.50;;;20.34;100.00
18795;BME280;29610;49.022;12.114;2023-09-19T07:25:36;97567.16;;;20.36;100.00
18795;BME280;29610;49.022;12.114;2023-09-19T07:28:26;97566.78;;;20.41;100.00
18795;BME280;29610;49.022;12.114;2023-09-19T07:31:17;97564.47;;;20.57;100.00
18795;BME280;29610;49.022;12.114;2023-09-19T07:34:06;97569.63;;;20.59;100.00
18795;BME280;29610;49.022;12.114;2023-09-19T07:36:55;97571.22;;;20.67;100.00
18795;BME280;29610;49.022;12.114;2023-09-19T07:39:44;97558.25;;;20.74;100.00
18795;BME280;29610;49.022;12.114;2023-09-19T07:42:33;97564.16;;;20.80;100.00
18795;BME280;29610;49.022;12.114;2023-09-19T07:45:23;97571.28;;;20.84;100.00
18795;BME280;29610;49.022;12.114;2023-09-19T07:48:12;97574.09;;;20.98;100.00
18795;BME280;29610;49.022;12.114;2023-09-19T07:51:03;97584.41;;;21.19;100.00
18795;BME280;29610;49.022;12.114;2023-09-19T07:53:55;97589.56;;;21.38;100.00
18795;BME280;29610;49.022;12.114;2023-09-19T07:56:43;97598.25;;;21.43;100.00
18795;BME280;29610;49.022;12.114;2023-09-19T07:59:32;97594.28;;;21.37;100.00
18795;BME280;29610;49.022;12.114;2023-09-19T08:02:23;97589.56;;;21.73;100.00
18795;BME280;29610;49.022;12.114;2023-09-19T08:05:12;97601.41;;;21.56;100.00
18795;BME280;29610;49.022;12.114;2023-09-19T08:08:03;97595.06;;;21.59;100.00
18795;BME280;29610;49.022;12.114;2023-09-19T08:10:54;97602.59;;;21.27;100.00
18795;BME280;29610;49.022;12.114;2023-09-19T08:13:44;97602.19;;;21.25;100.00
18795;BME280;29610;49.022;12.114;2023-09-19T08:16:36;97609.69;;;21.24;100.00
18795;BME280;29610;49.022;12.114;2023-09-19T08:19:26;97607.69;;;21.18;100.00
18795;BME280;29610;49.022;12.114;2023-09-19T08:22:15;97614.84;;;21.36;100.00
18795;BME280;29610;49.022;12.114;2023-09-19T08:25:07;97602.63;;;21.80;100.00
18795;BME280;29610;49.022;12.114;2023-09-19T08:27:56;97602.53;;;22.18;100.00
18795;BME280;29610;49.022;12.114;2023-09-19T08:30:47;97605.66;;;22.34;100.00
18795;BME280;29610;49.022;12.114;2023-09-19T08:33:37;97604.91;;;22.27;100.00
18795;BME280;29610;49.022;12.114;2023-09-19T08:36:27;97606.56;;;22.03;100.00
18795;BME280;29610;49.022;12.114;2023-09-19T08:39:18;97606.53;;;22.14;100.00
18795;BME280;29610;49.022;12.114;2023-09-19T08:42:07;97602.94;;;22.20;100.00
18795;BME280;29610;49.022;12.114;2023-09-19T08:44:57;97602.06;;;22.55;100.00
18795;BME280;29610;49.022;12.114;2023-09-19T08:48:00;97607.94;;;22.67;100.00
18795;BME280;29610;49.022;12.114;2023-09-19T08:50:56;97599.31;;;22.55;100.00
18795;BME280;29610;49.022;12.114;2023-09-19T08:53:54;97603.94;;;22.79;100.00
18795;BME280;29610;49.022;12.114;2023-09-19T08:56:51;97606.91;;;23.20;100.00
18795;BME280;29610;49.022;12.114;2023-09-19T08:59:43;97603.41;;;23.12;100.00
18795;BME280;29610;49.022;12.114;2023-09-19T09:02:33;97610.09;;;23.18;100.00
18795;BME280;29610;49.022;12.114;2023-09-19T09:05:24;97620.06;;;23.01;100.00
18795;BME280;29610;49.022;12.114;2023-09-19T09:08:14;97623.41;;;22.65;100.00
18795;BME280;29610;49.022;12.114;2023-09-19T09:11:06;97622.13;;;22.83;100.00
18795;BME280;29610;49.022;12.114;2023-09-19T09:13:55;97620.66;;;22.61;100.00
18795;BME280;29610;49.022;12.114;2023-09-19T09:16:45;97624.59;;;22.50;100.00
18795;BME280;29610;49.022;12.114;2023-09-19T09:19:36;97623.41;;;22.65;100.00
18795;BME280;29610;49.022;12.114;2023-09-19T09:22:25;97631.78;;;22.30;100.00
18795;BME280;29610;49.022;12.114;2023-09-19T09:25:14;97628.66;;;22.21;100.00
18795;BME280;29610;49.022;12.114;2023-09-19T09:28:09;97637.69;;;22.39;100.00
18795;BME280;29610;49.022;12.114;2023-09-19T09:30:59;97633.66;;;22.78;100.00
18795;BME280;29610;49.022;12.114;2023-09-19T09:33:53;97639.53;;;22.94;100.00
18795;BME280;29610;49.022;12.114;2023-09-19T09:36:47;97628.59;;;23.35;100.00
18795;BME280;29610;49.022;12.114;2023-09-19T09:39:39;97632.28;;;23.14;100.00
18795;BME280;29610;49.022;12.114;2023-09-19T09:42:32;97632.06;;;22.74;100.00
18795;BME280;29610;49.022;12.114;2023-09-19T09:45:24;97634.19;;;22.21;100.00
18795;BME280;29610;49.022;12.114;2023-09-19T09:48:25;97638.53;;;22.18;100.00
18795;BME280;29610;49.022;12.114;2023-09-19T09:51:29;97646.88;;;22.15;100.00
18795;BME280;29610;49.022;12.114;2023-09-19T09:54:19;97654.78;;;21.99;100.00
18795;BME280;29610;49.022;12.114;2023-09-19T09:57:10;97658.75;;;21.91;100.00
18795;BME280;29610;49.022;12.114;2023-09-19T10:00:10;97666.63;;;21.82;100.00
18795;BME280;29610;49.022;12.114;2023-09-19T10:03:19;97674.94;;;22.10;100.00
18795;BME280;29610;49.022;12.114;2023-09-19T10:06:12;97665.78;;;22.41;100.00
18795;BME280;29610;49.022;12.114;2023-09-19T10:09:16;97658.31;;;22.27;100.00
18795;BME280;29610;49.022;12.114;2023-09-19T10:12:10;97664.97;;;22.44;100.00
18795;BME280;29610;49.022;12.114;2023-09-19T10:15:03;97667.75;;;22.40;100.00
18795;BME280;29610;49.022;12.114;2023-09-19T10:17:55;97656.66;;;22.44;100.00
18795;BME280;29610;49.022;12.114;2023-09-19T10:20:46;97654.88;;;23.09;100.00
18795;BME280;29610;49.022;12.114;2023-09-19T10:23:37;97646.13;;;23.18;100.00
18795;BME280;29610;49.022;12.114;2023-09-19T10:26:27;97651.91;;;23.48;100.00
18795;BME280;29610;49.022;12.114;2023-09-19T10:29:19;97657.91;;;23.91;100.00
18795;BME280;29610;49.022;12.114;2023-09-19T10:32:11;97655.16;;;24.35;100.00
18795;BME280;29610;49.022;12.114;2023-09-19T10:35:07;97664.88;;;24.53;100.00
18795;BME280;29610;49.022;12.114;2023-09-19T10:38:01;97670.16;;;24.82;100.00
18795;BME280;29610;49.022;12.114;2023-09-19T10:40:52;97664.72;;;25.05;100.00
18795;BME280;29610;49.022;12.114;2023-09-19T10:43:48;97667.75;;;24.84;100.00
18795;BME280;29610;49.022;12.114;2023-09-19T10:46:37;97662.38;;;25.00;100.00
18795;BME280;29610;49.022;12.114;2023-09-19T10:49:26;97668.09;;;25.19;100.00
18795;BME280;29610;49.022;12.114;2023-09-19T10:52:21;97654.81;;;25.30;100.00
18795;BME280;29610;49.022;12.114;2023-09-19T10:55:17;97648.63;;;25.49;100.00
18795;BME280;29610;49.022;12.114;2023-09-19T10:58:08;97658.53;;;25.50;100.00
18795;BME280;29610;49.022;12.114;2023-09-19T11:01:02;97655.47;;;25.68;100.00
18795;BME280;29610;49.022;12.114;2023-09-19T11:04:24;97660.84;;;25.55;100.00
18795;BME280;29610;49.022;12.114;2023-09-19T11:07:14;97661.41;;;25.70;100.00
18795;BME280;29610;49.022;12.114;2023-09-19T11:10:04;97654.09;;;25.79;100.00
18795;BME280;29610;49.022;12.114;2023-09-19T11:12:57;97654.34;;;25.65;100.00
18795;BME280;29610;49.022;12.114;2023-09-19T11:16:18;97659.16;;;25.61;100.00
18795;BME280;29610;49.022;12.114;2023-09-19T11:19:11;97654.31;;;25.92;100.00
18795;BME280;29610;49.022;12.114;2023-09-19T11:21:59;97650.63;;;26.22;100.00
18795;BME280;29610;49.022;12.114;2023-09-19T11:24:47;97645.25;;;26.34;100.00
18795;BME280;29610;49.022;12.114;2023-09-19T11:31:43;97653.91;;;26.59;100.00
18795;BME280;29610;49.022;12.114;2023-09-19T11:34:49;97654.50;;;27.09;100.00
18795;BME280;29610;49.022;12.114;2023-09-19T11:38:00;97654.50;;;27.65;100.00
18795;BME280;29610;49.022;12.114;2023-09-19T11:41:37;97649.56;;;27.88;89.42
18795;BME280;29610;49.022;12.114;2023-09-19T11:44:34;97647.91;;;27.39;95.57
18795;BME280;29610;49.022;12.114;2023-09-19T11:47:33;97651.16;;;27.18;96.68
18795;BME280;29610;49.022;12.114;2023-09-19T11:50:24;97642.88;;;27.50;97.20
18795;BME280;29610;49.022;12.114;2023-09-19T11:53:14;97643.59;;;27.70;100.00
18795;BME280;29610;49.022;12.114;2023-09-19T11:56:06;97641.22;;;27.53;88.65
18795;BME280;29610;49.022;12.114;2023-09-19T11:58:58;97641.16;;;26.81;92.93
18795;BME280;29610;49.022;12.114;2023-09-19T12:01:52;97639.94;;;26.82;97.42
18795;BME280;29610;49.022;12.114;2023-09-19T12:04:46;97634.94;;;26.74;97.41
18795;BME280;29610;49.022;12.114;2023-09-19T12:07:43;97648.47;;;26.75;100.00
18795;BME280;29610;49.022;12.114;2023-09-19T12:10:47;97629.38;;;26.74;93.19
18795;BME280;29610;49.022;12.114;2023-09-19T12:13:41;97623.88;;;26.47;97.93
18795;BME280;29610;49.022;12.114;2023-09-19T12:16:33;97635.34;;;26.53;99.02
18795;BME280;29610;49.022;12.114;2023-09-19T12:19:34;97630.78;;;27.01;95.81
18795;BME280;29610;49.022;12.114;2023-09-19T12:22:24;97636.25;;;27.24;93.02
18795;BME280;29610;49.022;12.114;2023-09-19T12:25:14;97637.09;;;26.86;89.69
18795;BME280;29610;49.022;12.114;2023-09-19T12:28:05;97632.56;;;27.31;91.51
18795;BME280;29610;49.022;12.114;2023-09-19T12:30:53;97624.69;;;27.06;87.51
18795;BME280;29610;49.022;12.114;2023-09-19T12:33:43;97623.97;;;27.22;81.04
18795;BME280;29610;49.022;12.114;2023-09-19T12:36:32;97624.66;;;27.62;81.11
18795;BME280;29610;49.022;12.114;2023-09-19T12:39:27;97609.81;;;27.33;71.38
18795;BME280;29610;49.022;12.114;2023-09-19T12:42:19;97604.94;;;27.17;70.01
18795;BME280;29610;49.022;12.114;2023-09-19T12:45:11;97602.56;;;26.80;74.03
18795;BME280;29610;49.022;12.114;2023-09-19T12:48:19;97599.06;;;27.11;70.65
18795;BME280;29610;49.022;12.114;2023-09-19T12:51:11;97592.47;;;27.41;69.24
18795;BME280;29610;49.022;12.114;2023-09-19T12:54:00;97595.97;;;27.25;67.57
18795;BME280;29610;49.022;12.114;2023-09-19T12:56:51;97600.31;;;27.30;65.45
18795;BME280;29610;49.022;12.114;2023-09-19T12:59:41;97601.38;;;27.16;67.73
18795;BME280;29610;49.022;12.114;2023-09-19T13:02:30;97599.19;;;27.24;67.23
18795;BME280;29610;49.022;12.114;2023-09-19T13:05:19;97610.16;;;27.15;65.38
18795;BME280;29610;49.022;12.114;2023-09-19T13:08:18;97608.56;;;26.78;65.75
18795;BME280;29610;49.022;12.114;2023-09-19T13:11:11;97600.69;;;26.73;65.02
18795;BME280;29610;49.022;12.114;2023-09-19T13:14:20;97618.13;;;26.58;66.85
18795;BME280;29610;49.022;12.114;2023-09-19T13:17:09;97604.31;;;26.51;69.07
18795;BME280;29610;49.022;12.114;2023-09-19T13:20:06;97600.00;;;26.69;70.76
18795;BME280;29610;49.022;12.114;2023-09-19T13:22:56;97598.09;;;26.43;76.92
18795;BME280;29610;49.022;12.114;2023-09-19T13:25:48;97598.59;;;26.38;76.13
18795;BME280;29610;49.022;12.114;2023-09-19T13:28:40;97599.31;;;26.62;72.63
18795;BME280;29610;49.022;12.114;2023-09-19T13:31:30;97596.09;;;26.01;78.57
18795;BME280;29610;49.022;12.114;2023-09-19T13:34:20;97595.22;;;26.27;76.84
18795;BME280;29610;49.022;12.114;2023-09-19T13:37:08;97596.94;;;26.21;74.52
18795;BME280;29610;49.022;12.114;2023-09-19T13:39:57;97590.22;;;25.96;80.46
18795;BME280;29610;49.022;12.114;2023-09-19T13:42:51;97591.06;;;26.16;79.07
18795;BME280;29610;49.022;12.114;2023-09-19T13:45:48;97593.88;;;26.35;74.01
18795;BME280;29610;49.022;12.114;2023-09-19T13:48:39;97593.00;;;26.38;79.32
18795;BME280;29610;49.022;12.114;2023-09-19T13:51:29;97591.13;;;26.12;80.10
18795;BME280;29610;49.022;12.114;2023-09-19T13:54:21;97588.63;;;26.18;81.29
18795;BME280;29610;49.022;12.114;2023-09-19T13:57:09;97586.97;;;26.01;79.78
18795;BME280;29610;49.022;12.114;2023-09-19T14:00:01;97593.06;;;25.69;84.50
18795;BME280;29610;49.022;12.114;2023-09-19T14:02:58;97593.69;;;25.53;83.75
18795;BME280;29610;49.022;12.114;2023-09-19T14:05:49;97589.63;;;25.35;83.07
18795;BME280;29610;49.022;12.114;2023-09-19T14:08:39;97587.75;;;25.25;83.80
18795;BME280;29610;49.022;12.114;2023-09-19T14:11:28;97591.13;;;24.83;85.95
18795;BME280;29610;49.022;12.114;2023-09-19T14:14:17;97593.72;;;24.63;85.75
18795;BME280;29610;49.022;12.114;2023-09-19T14:17:06;97592.16;;;24.28;87.09
18795;BME280;29610;49.022;12.114;2023-09-19T14:19:56;97589.72;;;24.64;86.80
18795;BME280;29610;49.022;12.114;2023-09-19T14:22:47;97590.69;;;24.54;89.60
18795;BME280;29610;49.022;12.114;2023-09-19T14:25:36;97589.19;;;24.46;85.82
18795;BME280;29610;49.022;12.114;2023-09-19T14:28:25;97579.66;;;24.43;85.74
18795;BME280;29610;49.022;12.114;2023-09-19T14:31:14;97581.06;;;24.25;87.02
18795;BME280;29610;49.022;12.114;2023-09-19T14:34:03;97577.88;;;24.26;85.06
18795;BME280;29610;49.022;12.114;2023-09-19T14:36:52;97569.66;;;24.16;89.50
18795;BME280;29610;49.022;12.114;2023-09-19T14:39:43;97564.97;;;24.09;89.68
18795;BME280;29610;49.022;12.114;2023-09-19T14:42:32;97562.59;;;24.08;87.55
18795;BME280;29610;49.022;12.114;2023-09-19T14:45:23;97560.66;;;24.05;91.46
18795;BME280;29610;49.022;12.114;2023-09-19T14:48:13;97560.34;;;23.99;96.83
18795;BME280;29610;49.022;12.114;2023-09-19T14:51:06;97562.41;;;23.88;93.70
18795;BME280;29610;49.022;12.114;2023-09-19T14:53:56;97556.75;;;23.95;97.20
18795;BME280;29610;49.022;12.114;2023-09-19T14:56:46;97561.91;;;24.00;95.75